Time;durP1;ratioP1;P1;durP2;ratioP2;P2;SDS_P1;SDS_P2;PMS_P1;PMS_P2;Temp;Humidity;BMP_temperature;BMP_pressure;BME280_temperature;BME280_humidity;BME280_pressure;Samples;Min_cycle;Max_cycle;Signal;HPM_P1;HPM_P2
2022/11/25 00:01:39;;;;;;;17.45;7.17;;;;;;;9.44;74.28;100441.42;1867923;75;21485;-55
2022/11/25 00:04:08;;;;;;;16.17;6.87;;;;;;;9.44;74.14;100423.90;1877010;76;21094;-54
2022/11/25 00:06:37;;;;;;;14.78;6.80;;;;;;;9.48;74.00;100410.18;1872336;76;21043;-53
2022/11/25 00:09:11;;;;;;;15.48;6.75;;;;;;;9.51;73.87;100421.02;1870055;77;21047;-52
2022/11/25 00:11:42;;;;;;;13.38;6.70;;;;;;;9.54;73.88;100419.13;1869935;76;21039;-50
2022/11/25 00:14:13;;;;;;;17.52;7.42;;;;;;;9.52;74.01;100403.03;1869548;75;21023;-56
2022/11/25 00:16:43;;;;;;;23.32;7.20;;;;;;;9.56;73.98;100397.58;1869999;77;21102;-55
2022/11/25 00:19:12;;;;;;;18.17;7.70;;;;;;;9.62;73.94;100399.09;1872977;75;21556;-56
2022/11/25 00:21:40;;;;;;;16.27;8.05;;;;;;;9.69;73.88;100408.92;1879907;74;21059;-44
2022/11/25 00:24:11;;;;;;;17.85;8.58;;;;;;;9.72;73.87;100408.34;1880787;76;21087;-44
2022/11/25 00:26:40;;;;;;;20.35;8.33;;;;;;;9.74;73.82;100414.39;1873826;76;21071;-46
2022/11/25 00:29:11;;;;;;;14.38;7.92;;;;;;;9.68;73.90;100417.23;1875325;76;21039;-44
2022/11/25 00:31:41;;;;;;;17.73;8.48;;;;;;;9.68;73.96;100415.08;1876433;76;21105;-44
2022/11/25 00:34:13;;;;;;;14.98;7.60;;;;;;;9.68;73.84;100413.77;1875311;76;21051;-45
2022/11/25 00:36:42;;;;;;;17.55;8.20;;;;;;;9.68;73.82;100406.73;1874753;76;21111;-50
2022/11/25 00:39:13;;;;;;;21.25;8.03;;;;;;;9.71;73.77;100408.39;1867159;77;21032;-46
2022/11/25 00:44:36;;;;;;;18.82;8.38;;;;;;;9.78;73.73;100391.45;1877064;76;21011;-50
2022/11/25 00:47:10;;;;;;;16.73;7.47;;;;;;;9.80;73.67;100397.50;1876958;76;21004;-46
2022/11/25 00:49:41;;;;;;;17.07;8.33;;;;;;;9.82;73.59;100407.02;1871422;76;21196;-45
2022/11/25 00:52:12;;;;;;;20.77;7.95;;;;;;;9.79;73.68;100419.44;1867097;77;21133;-48
2022/11/25 00:54:41;;;;;;;21.65;8.55;;;;;;;9.77;73.65;100401.56;1867227;77;21071;-47
2022/11/25 00:57:11;;;;;;;21.95;8.83;;;;;;;9.79;73.65;100387.89;1875015;76;21470;-46
2022/11/25 00:59:40;;;;;;;17.37;9.03;;;;;;;9.81;73.76;100386.05;1870617;76;21531;-44
2022/11/25 01:02:10;;;;;;;19.35;8.95;;;;;;;9.84;73.79;100389.41;1871847;76;21019;-48
2022/11/25 01:04:39;;;;;;;17.45;8.58;;;;;;;9.87;73.87;100393.70;1870016;77;21019;-46
2022/11/25 01:07:08;;;;;;;23.00;8.68;;;;;;;9.88;73.87;100382.24;1869887;77;21043;-46
2022/11/25 01:09:36;;;;;;;17.92;7.47;;;;;;;9.87;73.91;100375.30;1871355;75;22060;-44
2022/11/25 01:12:05;;;;;;;18.55;8.38;;;;;;;9.89;73.87;100362.93;1876954;76;21015;-48
2022/11/25 01:14:35;;;;;;;15.98;8.48;;;;;;;9.91;73.83;100354.98;1873270;76;21043;-46
2022/11/25 01:17:05;;;;;;;11.95;6.12;;;;;;;9.91;73.76;100363.72;1872183;76;21477;-48
2022/11/25 01:19:38;;;;;;;18.05;8.53;;;;;;;9.84;74.08;100397.30;1876961;76;21040;-46
2022/11/25 01:22:04;;;;;;;18.80;7.50;;;;;;;9.76;74.48;100377.52;1876686;76;21015;-52
2022/11/25 01:24:33;;;;;;;17.90;7.60;;;;;;;9.79;74.32;100352.39;1875678;76;21150;-54
2022/11/25 01:27:01;;;;;;;16.02;7.10;;;;;;;9.80;74.24;100365.95;1871810;76;21063;-46
2022/11/25 01:29:30;;;;;;;17.73;8.10;;;;;;;9.78;74.65;100400.19;1876958;76;21035;-49
2022/11/25 01:31:59;;;;;;;14.73;7.55;;;;;;;9.74;74.70;100367.50;1877332;76;21138;-47
2022/11/25 01:34:30;;;;;;;18.48;7.75;;;;;;;9.72;74.77;100348.30;1877049;76;21070;-50
2022/11/25 01:36:58;;;;;;;16.60;7.03;;;;;;;9.74;74.78;100423.59;1888407;75;21119;-47
2022/11/25 01:39:27;;;;;;;20.52;8.38;;;;;;;9.65;75.67;100412.12;1885761;75;21177;-53
2022/11/25 01:41:56;;;;;;;32.38;9.73;;;;;;;9.70;75.53;100396.16;1886325;75;21045;-50
2022/11/25 01:44:28;;;;;;;27.95;9.50;;;;;;;9.75;75.34;100390.25;1891958;76;21448;-47
2022/11/25 01:47:23;;;;;;;25.68;8.50;;;;;;;9.76;75.20;100401.19;1891731;76;21049;-44
2022/11/25 01:50:00;;;;;;;21.35;7.30;;;;;;;9.77;75.38;100404.19;1891796;76;21042;-50
2022/11/25 01:52:38;;;;;;;19.35;8.25;;;;;;;9.78;75.16;100401.50;1845437;78;21072;-52
2022/11/25 01:55:17;;;;;;;29.45;10.93;;;;;;;9.81;75.00;100391.30;1844657;78;21072;-50
2022/11/25 01:57:52;;;;;;;16.02;7.35;;;;;;;9.83;74.85;100419.70;1845387;78;21166;-43
2022/11/25 02:00:23;;;;;;;25.00;9.60;;;;;;;9.79;75.03;100430.84;1845404;76;21088;-46
2022/11/25 02:02:55;;;;;;;29.65;8.85;;;;;;;9.76;75.10;100389.35;1845402;78;21154;-48
2022/11/25 02:05:34;;;;;;;22.70;8.78;;;;;;;9.76;75.12;100411.70;1845456;78;21082;-46
2022/11/25 02:08:04;;;;;;;21.45;9.13;;;;;;;9.76;74.98;100398.55;1844975;78;21680;-49
2022/11/25 02:10:35;;;;;;;28.45;10.00;;;;;;;9.78;74.91;100387.04;1845479;78;21624;-45
2022/11/25 02:13:04;;;;;;;18.80;8.85;;;;;;;9.82;74.83;100394.34;1845448;78;21180;-45
2022/11/25 02:15:34;;;;;;;20.12;9.55;;;;;;;9.83;74.75;100401.30;1845464;78;21169;-46
2022/11/25 02:18:09;;;;;;;22.90;8.70;;;;;;;9.83;74.79;100396.03;1845522;78;21032;-49
2022/11/25 02:20:39;;;;;;;23.52;9.05;;;;;;;9.83;74.71;100399.98;1845366;78;21080;-46
2022/11/25 02:23:26;;;;;;;20.60;9.03;;;;;;;9.83;74.71;100396.03;1845414;78;21081;-46
2022/11/25 02:25:56;;;;;;;24.27;8.98;;;;;;;9.83;74.73;100392.09;1845342;78;21114;-44
2022/11/25 02:28:29;;;;;;;23.02;9.98;;;;;;;9.83;74.86;100403.92;1845423;78;21138;-44
2022/11/25 02:30:59;;;;;;;30.45;10.65;;;;;;;9.82;74.92;100396.50;1853572;76;21040;-50
2022/11/25 02:33:29;;;;;;;23.85;10.20;;;;;;;9.83;74.89;100390.78;1876927;76;21438;-45
2022/11/25 02:36:01;;;;;;;25.32;8.98;;;;;;;9.84;74.91;100388.56;1876861;76;21035;-46
2022/11/25 02:38:54;;;;;;;23.32;9.60;;;;;;;9.86;74.89;100383.62;1877054;76;21503;-45
2022/11/25 02:41:33;;;;;;;17.65;8.80;;;;;;;9.88;74.96;100380.08;1876566;76;21067;-48
2022/11/25 02:44:04;;;;;;;25.17;11.50;;;;;;;9.89;75.03;100383.13;1876830;76;21634;-46
2022/11/25 02:46:34;;;;;;;30.15;12.18;;;;;;;9.91;75.25;100403.63;1877006;76;21087;-48
2022/11/25 02:49:03;;;;;;;27.00;10.63;;;;;;;9.87;75.33;100408.16;1877335;76;21122;-48
2022/11/25 02:51:33;;;;;;;22.73;9.40;;;;;;;9.87;75.40;100417.37;1876973;76;21101;-46
2022/11/25 02:54:02;;;;;;;18.05;7.50;;;;;;;9.89;75.34;100431.77;1876900;76;21423;-47
2022/11/25 02:56:33;;;;;;;22.07;7.42;;;;;;;9.90;75.30;100442.67;1877039;76;21540;-47
2022/11/25 02:59:03;;;;;;;21.85;9.03;;;;;;;9.94;75.16;100446.45;1876554;76;21522;-48
2022/11/25 03:01:33;;;;;;;22.95;8.48;;;;;;;9.97;75.07;100453.34;1877281;76;21050;-46
2022/11/25 03:04:04;;;;;;;20.48;6.83;;;;;;;9.99;74.99;100456.30;1877047;76;21109;-46
2022/11/25 03:06:33;;;;;;;22.82;8.68;;;;;;;10.01;74.92;100461.06;1877435;76;21360;-52
2022/11/25 03:09:02;;;;;;;16.15;7.87;;;;;;;10.00;74.88;100465.91;1877324;76;21141;-53
2022/11/25 03:14:18;;;;;;;18.27;7.58;;;;;;;10.02;74.90;100464.06;1845727;78;21038;-52
2022/11/25 03:16:47;;;;;;;23.47;7.85;;;;;;;10.02;74.86;100464.06;1845720;78;21047;-53
2022/11/25 03:19:15;;;;;;;20.23;7.40;;;;;;;10.01;74.90;100467.63;1845655;78;21055;-51
2022/11/25 03:21:44;;;;;;;17.12;7.85;;;;;;;9.97;75.09;100466.49;1874700;76;21122;-51
2022/11/25 03:24:13;;;;;;;21.05;7.53;;;;;;;9.99;75.16;100476.02;1877231;76;21091;-50
2022/11/25 03:26:41;;;;;;;15.23;6.55;;;;;;;10.00;75.17;100484.32;1877099;76;21064;-52
2022/11/25 03:29:10;;;;;;;16.95;7.62;;;;;;;10.03;75.14;100476.31;1877306;76;21027;-52
2022/11/25 03:31:39;;;;;;;20.90;7.83;;;;;;;10.04;75.14;100479.33;1876740;76;21076;-52
2022/11/25 03:34:09;;;;;;;19.23;7.80;;;;;;;10.04;75.21;100478.48;1876936;76;21040;-50
2022/11/25 03:36:38;;;;;;;26.85;8.20;;;;;;;10.02;75.36;100489.53;1877341;76;21443;-51
2022/11/25 03:39:07;;;;;;;14.93;7.00;;;;;;;10.03;75.49;100485.95;1877206;76;21063;-51
2022/11/25 03:41:36;;;;;;;16.67;6.25;;;;;;;10.07;75.56;100485.38;1876795;76;21510;-50
2022/11/25 03:44:06;;;;;;;12.25;6.95;;;;;;;10.11;75.53;100486.98;1877207;76;21076;-52
2022/11/25 03:46:35;;;;;;;14.18;6.97;;;;;;;10.12;75.49;100490.84;1877153;76;21044;-50
2022/11/25 03:49:04;;;;;;;15.03;5.58;;;;;;;10.12;75.44;100495.26;1877148;76;21142;-54
2022/11/25 03:51:33;;;;;;;12.63;5.33;;;;;;;10.10;75.49;100496.62;1876703;76;21108;-54
2022/11/25 03:54:03;;;;;;;12.30;7.25;;;;;;;10.09;75.51;100494.06;1873293;76;21058;-52
2022/11/25 03:56:33;;;;;;;15.48;6.72;;;;;;;10.08;75.58;100492.36;1871599;76;21066;-52
2022/11/25 03:59:02;;;;;;;17.48;6.60;;;;;;;10.09;75.70;100485.73;1872901;76;21031;-52
2022/11/25 04:01:31;;;;;;;17.90;7.15;;;;;;;10.11;75.79;100482.57;1872804;76;21130;-51
2022/11/25 04:04:00;;;;;;;17.95;7.62;;;;;;;10.13;75.87;100474.63;1875410;76;21591;-53
2022/11/25 04:06:30;;;;;;;18.80;7.12;;;;;;;10.15;76.00;100466.20;1877196;76;21109;-53
2022/11/25 04:08:59;;;;;;;13.88;6.70;;;;;;;10.13;76.24;100473.30;1877243;76;21059;-54
2022/11/25 04:13:58;;;;;;;14.90;6.20;;;;;;;10.09;76.63;100473.02;1827947;76;21154;-51
2022/11/25 04:16:27;;;;;;;24.82;7.95;;;;;;;10.11;76.66;100472.52;1876917;76;21141;-52
2022/11/25 04:18:56;;;;;;;17.23;6.85;;;;;;;10.13;76.57;100466.73;1876966;76;21142;-53
2022/11/25 04:21:24;;;;;;;19.12;7.33;;;;;;;10.14;76.50;100457.90;1874808;76;21078;-51
2022/11/25 04:23:53;;;;;;;17.35;7.70;;;;;;;10.11;76.71;100452.78;1872717;77;21121;-51
2022/11/25 04:26:24;;;;;;;18.02;7.25;;;;;;;10.13;76.83;100456.20;1872698;77;21034;-50
2022/11/25 04:28:53;;;;;;;19.52;7.58;;;;;;;10.14;76.84;100450.00;1872797;76;21518;-49
2022/11/25 04:31:21;;;;;;;16.50;7.67;;;;;;;10.16;76.81;100453.42;1872943;76;21051;-50
2022/11/25 04:33:50;;;;;;;18.30;7.45;;;;;;;10.15;76.79;100433.31;1872761;76;21462;-50
2022/11/25 04:36:19;;;;;;;26.77;8.05;;;;;;;10.14;76.86;100442.11;1872700;77;21156;-52
2022/11/25 04:38:48;;;;;;;21.10;9.38;;;;;;;10.13;76.98;100445.21;1872695;77;21099;-52
2022/11/25 04:41:18;;;;;;;20.70;8.18;;;;;;;10.12;77.18;100454.02;1873075;76;21521;-52
2022/11/25 04:43:48;;;;;;;28.90;10.15;;;;;;;10.10;77.22;100457.64;1884370;76;21030;-53
2022/11/25 04:46:22;;;;;;;17.85;8.50;;;;;;;10.09;77.41;100453.28;1884275;76;21027;-51
2022/11/25 04:48:52;;;;;;;29.25;10.28;;;;;;;10.08;77.48;100458.16;1884440;76;21531;-50
2022/11/25 04:51:21;;;;;;;27.27;10.15;;;;;;;10.09;77.43;100459.86;1884284;76;21100;-52
2022/11/25 04:53:51;;;;;;;23.32;10.00;;;;;;;10.10;77.45;100463.74;1873626;75;21505;-44
2022/11/25 04:56:21;;;;;;;23.85;9.05;;;;;;;10.10;77.57;100470.79;1872723;76;21051;-51
2022/11/25 05:01:40;;;;;;;21.45;9.30;;;;;;;10.16;77.70;100457.37;1872324;77;21061;-50
2022/11/25 05:04:26;;;;;;;25.27;10.38;;;;;;;10.17;77.64;100461.26;1872876;76;21579;-52
2022/11/25 05:06:55;;;;;;;22.55;9.58;;;;;;;10.20;77.63;100461.61;1872684;76;21587;-47
2022/11/25 05:09:25;;;;;;;27.90;11.85;;;;;;;10.21;77.73;100455.41;1872808;77;21161;-45
2022/11/25 05:11:55;;;;;;;23.65;10.08;;;;;;;10.23;77.75;100451.78;1871118;76;21137;-51
2022/11/25 05:14:24;;;;;;;26.02;10.63;;;;;;;10.26;77.64;100456.08;1874939;76;21109;-49
2022/11/25 05:16:53;;;;;;;26.82;11.12;;;;;;;10.26;77.60;100461.34;1877057;76;21063;-50
2022/11/25 05:19:22;;;;;;;27.25;11.08;;;;;;;10.28;77.58;100470.02;1876961;76;21015;-49
2022/11/25 05:21:51;;;;;;;31.73;11.05;;;;;;;10.31;77.58;100465.11;1873918;76;21043;-48
2022/11/25 05:24:20;;;;;;;30.08;11.38;;;;;;;10.33;77.62;100461.52;1872647;77;21034;-49
2022/11/25 05:26:50;;;;;;;25.30;9.88;;;;;;;10.35;77.65;100468.88;1872583;77;21133;-47
2022/11/25 05:29:20;;;;;;;23.35;10.15;;;;;;;10.37;77.63;100466.19;1872631;76;21081;-46
2022/11/25 05:31:49;;;;;;;25.70;10.72;;;;;;;10.37;77.68;100464.41;1872297;76;21133;-44
2022/11/25 05:34:18;;;;;;;28.75;10.45;;;;;;;10.37;77.79;100461.77;1875475;75;21059;-47
2022/11/25 05:36:48;;;;;;;24.57;10.43;;;;;;;10.39;77.92;100470.92;1872870;76;21113;-53
2022/11/25 05:39:17;;;;;;;32.05;10.85;;;;;;;10.41;78.02;100469.08;1872736;76;21587;-52
2022/11/25 05:41:54;;;;;;;23.40;10.03;;;;;;;10.42;78.04;100470.77;1851138;75;21030;-50
2022/11/25 05:44:23;;;;;;;22.15;9.63;;;;;;;10.47;78.14;100478.48;1877925;76;21020;-46
2022/11/25 05:46:53;;;;;;;30.57;9.78;;;;;;;10.46;78.30;100472.81;1878460;76;21039;-46
2022/11/25 05:49:22;;;;;;;26.85;9.85;;;;;;;10.48;78.42;100482.84;1871785;77;21044;-51
2022/11/25 05:51:51;;;;;;;23.27;10.15;;;;;;;10.51;78.36;100484.01;1871600;76;21136;-54
2022/11/25 05:54:21;;;;;;;32.45;13.93;;;;;;;10.51;78.34;100482.69;1846968;77;21026;-54
2022/11/25 05:56:50;;;;;;;30.25;12.18;;;;;;;10.48;78.35;100475.80;1847318;77;21074;-46
2022/11/25 05:59:35;;;;;;;50.92;10.80;;;;;;;10.47;78.39;100500.86;1849728;77;21117;-47
2022/11/25 06:02:05;;;;;;;53.70;12.03;;;;;;;10.45;78.48;100505.34;1845706;77;21149;-44
2022/11/25 06:04:34;;;;;;;40.08;12.00;;;;;;;10.42;78.56;100512.88;1890241;75;21118;-49
2022/11/25 06:07:03;;;;;;;36.53;11.60;;;;;;;10.40;78.52;100506.39;1900688;75;21067;-46
2022/11/25 06:09:32;;;;;;;39.48;11.73;;;;;;;10.40;78.48;100506.39;1877842;76;21047;-44
2022/11/25 06:12:01;;;;;;;37.60;10.75;;;;;;;10.40;78.45;100502.45;1874126;76;21082;-46
2022/11/25 06:14:31;;;;;;;35.95;10.32;;;;;;;10.41;78.54;100504.14;1870653;76;21060;-46
2022/11/25 06:16:59;;;;;;;34.67;12.95;;;;;;;10.42;78.60;100507.19;1872750;76;21548;-46
2022/11/25 06:19:32;;;;;;;35.95;12.40;;;;;;;10.42;78.79;100504.55;1863181;76;21152;-47
2022/11/25 06:22:01;;;;;;;22.37;10.48;;;;;;;10.46;79.02;100505.72;1879740;76;21117;-44
2022/11/25 06:24:30;;;;;;;30.02;10.95;;;;;;;10.47;79.24;100505.66;1878182;75;21071;-46
2022/11/25 06:27:01;;;;;;;30.85;10.75;;;;;;;10.51;79.37;100510.33;1879678;76;21501;-47
2022/11/25 06:29:29;;;;;;;30.43;9.58;;;;;;;10.58;79.24;100507.84;1879587;75;21150;-47
2022/11/25 06:31:58;;;;;;;28.12;9.90;;;;;;;10.62;79.02;100513.36;1881249;76;21047;-49
2022/11/25 06:34:36;;;;;;;33.80;11.60;;;;;;;10.66;78.80;100508.82;1881456;76;21126;-47
2022/11/25 06:37:06;;;;;;;40.05;11.08;;;;;;;10.70;78.68;100513.91;1883916;75;21141;-46
2022/11/25 06:39:35;;;;;;;34.78;10.30;;;;;;;10.75;78.60;100519.84;1883652;76;21631;-48
2022/11/25 06:42:04;;;;;;;33.33;11.30;;;;;;;10.81;78.50;100518.24;1883219;76;21596;-52
2022/11/25 06:44:33;;;;;;;31.02;11.05;;;;;;;10.88;78.38;100519.28;1883678;76;21514;-51
2022/11/25 06:47:01;;;;;;;29.95;11.18;;;;;;;10.92;78.32;100519.53;1883655;76;21031;-51
2022/11/25 06:49:30;;;;;;;28.67;11.55;;;;;;;10.94;78.29;100513.77;1883667;76;21016;-52
2022/11/25 06:51:59;;;;;;;24.63;10.68;;;;;;;10.98;78.36;100507.43;1883278;75;21047;-50
2022/11/25 06:54:27;;;;;;;30.72;10.58;;;;;;;11.03;78.35;100505.45;1883526;76;21116;-52
2022/11/25 06:56:56;;;;;;;21.27;9.93;;;;;;;11.07;78.28;100508.34;1883658;76;21078;-51
2022/11/25 06:59:25;;;;;;;21.40;9.18;;;;;;;11.12;78.20;100506.36;1883662;76;21124;-50
2022/11/25 07:01:54;;;;;;;28.25;11.95;;;;;;;11.14;78.13;100505.82;1883614;76;21486;-49
2022/11/25 07:04:23;;;;;;;26.05;10.43;;;;;;;11.19;78.11;100505.16;1882411;76;21043;-48
2022/11/25 07:06:52;;;;;;;24.95;10.10;;;;;;;11.23;78.25;100511.11;1884534;76;21115;-48
2022/11/25 07:09:21;;;;;;;33.53;10.98;;;;;;;11.30;78.22;100505.11;1891389;76;20999;-47
2022/11/25 07:11:50;;;;;;;25.65;10.98;;;;;;;11.36;78.31;100506.14;1891275;76;21518;-47
2022/11/25 07:14:18;;;;;;;24.35;10.05;;;;;;;11.42;78.41;100504.56;1879920;76;21023;-46
2022/11/25 07:16:47;;;;;;;24.18;10.28;;;;;;;11.49;78.28;100513.02;1879635;76;21144;-46
2022/11/25 07:19:17;;;;;;;24.67;8.93;;;;;;;11.51;78.11;100517.31;1879609;76;21059;-47
2022/11/25 07:21:47;;;;;;;24.45;9.78;;;;;;;11.54;78.00;100518.47;1879774;76;21094;-49
2022/11/25 07:24:17;;;;;;;24.05;10.85;;;;;;;11.58;77.89;100518.74;1882653;76;21070;-48
2022/11/25 07:26:45;;;;;;;25.97;10.68;;;;;;;11.62;77.93;100512.86;1883729;76;21423;-47
2022/11/25 07:29:15;;;;;;;23.62;10.55;;;;;;;11.69;77.97;100519.56;1883619;76;21011;-47
2022/11/25 07:31:45;;;;;;;27.70;11.78;;;;;;;11.78;77.91;100524.84;1901907;75;21510;-52
2022/11/25 07:34:19;;;;;;;29.50;12.68;;;;;;;11.84;77.76;100515.78;1893396;75;21133;-51
2022/11/25 07:36:49;;;;;;;35.80;11.90;;;;;;;11.91;77.69;100518.08;1882298;76;21471;-48
2022/11/25 07:39:21;;;;;;;37.55;11.25;;;;;;;12.05;77.59;100513.94;1882066;76;21489;-47
2022/11/25 07:41:52;;;;;;;36.53;12.07;;;;;;;12.20;77.41;100523.73;1882096;76;21023;-46
2022/11/25 07:44:21;;;;;;;33.08;12.28;;;;;;;12.36;77.23;100528.65;1881794;76;21698;-45
2022/11/25 07:46:52;;;;;;;37.98;11.78;;;;;;;12.48;77.21;100522.36;1886591;75;21103;-49
2022/11/25 07:49:24;;;;;;;35.40;11.18;;;;;;;12.63;77.10;100529.49;1904220;75;21512;-47
2022/11/25 07:51:56;;;;;;;36.65;10.98;;;;;;;12.74;77.05;100529.83;1900940;75;21427;-51
2022/11/25 07:54:25;;;;;;;27.55;11.08;;;;;;;12.87;76.78;100543.70;1887826;76;21030;-44
2022/11/25 07:56:54;;;;;;;29.32;11.78;;;;;;;12.93;76.53;100548.69;1886965;76;21035;-45
2022/11/25 07:59:23;;;;;;;28.00;11.50;;;;;;;12.99;76.37;100533.83;1903832;75;21117;-46
2022/11/25 08:01:54;;;;;;;17.77;8.40;;;;;;;13.02;76.17;100538.97;1905839;75;21431;-48
2022/11/25 08:04:23;;;;;;;15.13;6.83;;;;;;;13.02;75.93;100538.97;1905682;75;21043;-45
2022/11/25 08:06:53;;;;;;;19.12;7.62;;;;;;;12.90;75.33;100543.08;1870109;76;21494;-46
2022/11/25 08:09:24;;;;;;;22.90;8.58;;;;;;;12.86;75.03;100545.98;1855944;77;21478;-46
2022/11/25 08:11:53;;;;;;;21.05;8.95;;;;;;;12.91;74.69;100545.25;1870383;76;21148;-47
2022/11/25 08:14:21;;;;;;;28.42;11.03;;;;;;;13.21;74.03;100543.28;1855948;77;21022;-46
2022/11/25 08:16:50;;;;;;;27.82;11.97;;;;;;;13.61;72.94;100537.17;1886534;75;21116;-45
2022/11/25 08:19:19;;;;;;;25.62;9.43;;;;;;;13.69;72.50;100534.97;1882212;76;21116;-46
2022/11/25 08:21:48;;;;;;;17.05;7.10;;;;;;;13.67;72.27;100535.53;1887891;75;21083;-45
2022/11/25 08:24:19;;;;;;;22.80;7.58;;;;;;;13.62;72.22;100535.77;1918475;75;21101;-45
2022/11/25 08:26:49;;;;;;;20.35;8.60;;;;;;;13.59;72.12;100540.38;1930987;74;21168;-46
2022/11/25 08:29:19;;;;;;;18.65;9.93;;;;;;;13.64;71.85;100531.72;1939251;74;21016;-44
2022/11/25 08:31:48;;;;;;;31.75;15.05;;;;;;;13.77;71.40;100534.55;1932516;73;21079;-46
2022/11/25 08:34:19;;;;;;;36.25;14.87;;;;;;;15.09;69.17;100535.28;1895208;75;21088;-45
2022/11/25 08:36:49;;;;;;;33.48;15.15;;;;;;;16.71;66.20;100532.41;1891117;76;21041;-52
2022/11/25 08:39:20;;;;;;;30.55;12.82;;;;;;;17.83;63.75;100529.88;1891296;76;21085;-52
2022/11/25 08:41:49;;;;;;;29.98;13.95;;;;;;;17.88;63.84;100538.91;1891838;75;21104;-51
2022/11/25 08:44:18;;;;;;;28.87;14.05;;;;;;;17.36;64.62;100548.30;1889021;76;21531;-47
2022/11/25 08:46:46;;;;;;;21.33;10.48;;;;;;;17.75;63.30;100550.41;1891197;76;21037;-48
2022/11/25 08:49:16;;;;;;;18.57;8.83;;;;;;;18.45;61.55;100550.20;1891200;76;21097;-49
2022/11/25 08:51:45;;;;;;;22.52;11.93;;;;;;;19.18;59.76;100542.91;1891358;76;21527;-51
2022/11/25 08:54:14;;;;;;;21.95;10.13;;;;;;;18.54;60.29;100538.50;1889704;75;21152;-49
2022/11/25 08:56:42;;;;;;;20.25;8.95;;;;;;;18.10;60.97;100544.36;1895590;75;21137;-49
2022/11/25 08:59:12;;;;;;;16.42;7.60;;;;;;;17.75;60.46;100541.09;1899902;75;21122;-50
2022/11/25 09:01:40;;;;;;;16.23;6.35;;;;;;;17.02;61.58;100526.34;1899193;75;21533;-48
2022/11/25 09:04:09;;;;;;;16.85;6.75;;;;;;;16.93;61.83;100527.83;1898904;75;21040;-47
2022/11/25 09:06:39;;;;;;;17.17;6.95;;;;;;;17.51;60.56;100523.73;1896690;75;21148;-48
2022/11/25 09:09:07;;;;;;;15.23;6.37;;;;;;;17.20;60.92;100519.74;1891139;76;21576;-52
2022/11/25 09:11:36;;;;;;;12.20;4.97;;;;;;;16.78;61.17;100523.05;1891240;76;21002;-51
2022/11/25 09:14:05;;;;;;;14.47;5.92;;;;;;;16.39;61.75;100522.98;1891169;76;21030;-49
2022/11/25 09:16:33;;;;;;;15.35;5.78;;;;;;;16.04;62.11;100522.67;1890707;75;21040;-49
2022/11/25 09:19:02;;;;;;;22.35;11.20;;;;;;;16.49;61.23;100519.72;1886456;76;21109;-49
2022/11/25 09:21:30;;;;;;;14.73;7.35;;;;;;;17.45;59.21;100515.36;1886425;76;21012;-52
2022/11/25 09:24:00;;;;;;;15.20;5.65;;;;;;;18.59;57.46;100515.85;1886566;76;21047;-51
2022/11/25 09:26:34;;;;;;;14.05;5.10;;;;;;;19.24;56.03;100510.38;1886506;76;21063;-52
2022/11/25 09:29:01;;;;;;;14.43;6.35;;;;;;;19.86;54.76;100501.45;1886039;75;21529;-53
2022/11/25 09:31:30;;;;;;;16.97;6.20;;;;;;;20.81;52.98;100504.20;1884245;76;21165;-47
2022/11/25 09:33:58;;;;;;;12.88;5.33;;;;;;;21.50;51.25;100493.33;1876884;76;21545;-51
2022/11/25 09:36:27;;;;;;;18.57;7.30;;;;;;;21.99;50.09;100490.75;1876974;76;21549;-49
2022/11/25 09:38:56;;;;;;;20.05;5.78;;;;;;;22.10;49.95;100491.11;1876520;76;21113;-50
2022/11/25 09:47:49;;;;;;;18.70;9.28;;;;;;;20.81;51.81;100485.48;1876944;76;21024;-47
2022/11/25 09:50:46;;;;;;;19.20;7.47;;;;;;;19.35;54.03;100492.19;1835503;76;21107;-51
2022/11/25 09:53:26;;;;;;;14.87;7.30;;;;;;;18.91;54.75;100492.54;1876309;76;21109;-46
2022/11/25 09:55:58;;;;;;;12.03;5.10;;;;;;;19.71;53.07;100490.17;1878531;76;21056;-51
2022/11/25 09:58:38;;;;;;;15.85;4.87;;;;;;;20.30;51.66;100487.56;1877035;76;21080;-51
2022/11/25 10:01:19;;;;;;;12.15;5.35;;;;;;;21.59;49.53;100488.48;1876459;76;21142;-50
2022/11/25 10:04:03;;;;;;;14.20;5.28;;;;;;;22.63;47.61;100479.95;1876958;76;21176;-50
2022/11/25 10:06:34;;;;;;;18.23;6.08;;;;;;;23.32;46.49;100477.89;1877305;76;21137;-44
2022/11/25 10:09:05;;;;;;;16.45;5.50;;;;;;;23.81;45.76;100467.73;1877101;76;21044;-43
2022/11/25 10:11:52;;;;;;;9.45;4.62;;;;;;;24.09;45.33;100470.35;1879102;76;21105;-45
2022/11/25 10:14:36;;;;;;;14.65;5.47;;;;;;;24.16;44.75;100467.87;1858825;76;20999;-47
2022/11/25 10:17:11;;;;;;;15.78;7.30;;;;;;;23.99;44.69;100467.72;1872063;76;21125;-43
2022/11/25 10:20:00;;;;;;;16.40;7.45;;;;;;;23.84;44.56;100466.06;1866415;77;21032;-44
2022/11/25 10:22:39;;;;;;;16.20;8.40;;;;;;;23.82;44.37;100462.69;1832532;78;21112;-45
2022/11/25 10:25:16;;;;;;;15.65;7.33;;;;;;;23.51;44.55;100471.05;1833373;78;21199;-47
2022/11/25 10:27:53;;;;;;;13.10;7.00;;;;;;;23.34;44.72;100473.72;1833363;78;21578;-45
2022/11/25 10:30:25;;;;;;;14.93;7.42;;;;;;;23.09;44.58;100464.86;1837744;76;21198;-45
2022/11/25 10:33:06;;;;;;;16.75;8.25;;;;;;;22.97;44.77;100464.66;1880684;75;21087;-45
2022/11/25 10:35:38;;;;;;;14.55;7.72;;;;;;;22.89;44.71;100458.69;1885164;75;21118;-45
2022/11/25 10:38:09;;;;;;;21.50;11.25;;;;;;;22.97;44.72;100455.26;1903245;75;21109;-49
2022/11/25 10:40:38;;;;;;;21.75;8.60;;;;;;;22.96;44.52;100452.72;1905769;75;21086;-50
2022/11/25 10:43:14;;;;;;;16.95;8.38;;;;;;;22.47;45.43;100452.87;1886091;75;21026;-51
2022/11/25 10:45:48;;;;;;;20.30;8.10;;;;;;;22.07;46.27;100448.48;1882038;76;21104;-51
2022/11/25 10:48:42;;;;;;;10.95;5.83;;;;;;;22.12;45.74;100444.39;1881497;75;21533;-51
2022/11/25 10:51:19;;;;;;;12.90;5.67;;;;;;;22.24;45.20;100444.23;1880471;76;21110;-48
2022/11/25 10:54:23;;;;;;;20.57;8.18;;;;;;;22.49;44.71;100442.83;1905351;75;21533;-46
2022/11/25 10:57:01;;;;;;;10.60;5.50;;;;;;;22.50;44.29;100453.90;1902144;75;21104;-49
2022/11/25 10:59:38;;;;;;;12.28;4.62;;;;;;;22.45;44.34;100449.48;1883661;76;21034;-51
2022/11/25 11:02:18;;;;;;;12.50;4.35;;;;;;;22.10;43.87;100452.23;1882137;76;21054;-45
2022/11/25 11:05:11;;;;;;;12.80;5.17;;;;;;;21.85;44.26;100449.61;1882108;76;21070;-46
2022/11/25 11:07:42;;;;;;;10.98;5.03;;;;;;;21.89;44.22;100455.91;1882261;76;21046;-48
2022/11/25 11:10:17;;;;;;;11.28;4.58;;;;;;;21.88;44.31;100454.20;1885081;76;21124;-52
2022/11/25 11:13:04;;;;;;;20.85;5.70;;;;;;;21.75;44.41;100453.63;1886128;76;21011;-45
2022/11/25 11:15:35;;;;;;;14.25;4.45;;;;;;;21.71;44.65;100448.20;1896239;75;21064;-45
2022/11/25 11:18:25;;;;;;;14.58;5.62;;;;;;;21.72;44.71;100443.19;1904402;75;21470;-48
2022/11/25 11:20:57;;;;;;;13.22;4.72;;;;;;;21.62;44.75;100438.32;1897896;75;21016;-47
2022/11/25 11:23:27;;;;;;;15.88;5.00;;;;;;;21.40;44.96;100442.89;1894076;76;21483;-46
2022/11/25 11:25:58;;;;;;;12.13;4.67;;;;;;;21.14;45.37;100447.39;1883261;75;21022;-47
2022/11/25 11:28:33;;;;;;;16.62;4.67;;;;;;;21.09;45.69;100445.60;1882211;76;21481;-46
2022/11/25 11:31:17;;;;;;;12.75;4.25;;;;;;;21.03;45.96;100448.83;1870701;75;21470;-51
2022/11/25 11:33:48;;;;;;;10.05;4.10;;;;;;;20.64;46.30;100460.68;1889794;75;21087;-51
2022/11/25 11:36:51;;;;;;;13.55;4.65;;;;;;;20.15;46.98;100456.28;1874274;76;21001;-49
2022/11/25 11:39:32;;;;;;;15.40;5.08;;;;;;;19.85;47.55;100453.86;1887439;75;21106;-49
2022/11/25 11:42:06;;;;;;;16.48;5.20;;;;;;;19.56;48.12;100459.38;1895617;75;21031;-47
2022/11/25 11:44:53;;;;;;;10.93;5.15;;;;;;;19.41;48.51;100456.97;1880755;75;21110;-44
2022/11/25 11:47:25;;;;;;;13.70;4.70;;;;;;;19.25;48.80;100460.02;1870415;76;21536;-45
2022/11/25 11:50:14;;;;;;;19.57;5.47;;;;;;;19.17;49.13;100462.46;1875991;76;21031;-46
2022/11/25 11:53:08;;;;;;;10.55;4.62;;;;;;;19.15;49.28;100458.23;1889223;75;21137;-45
2022/11/25 11:55:54;;;;;;;13.35;5.00;;;;;;;18.81;49.83;100460.41;1872627;76;21043;-49